Jordan Valley WCD
8215 S 1300 W, West Jordan
Last Weather Update:08/30/2011 11:00:00 PM
Date
ETo
ETc
Rain
Irrigation
Req
Temp
Max
Temp
Min
Temp
Avg
Avg RH
Avg Wind
Avg Solar
inches
inches
incehs
inches
F
F
F
%
%
watts/m2
07/01/2011 0.20" 0.16" 0.00" 0.16" 84.0° 56.0° 70.9° 47.8% 1.1 MPH 296.3w/m2
07/02/2011 0.22" 0.18" 0.00" 0.18" 97.5° 56.0° 76.4° 46.5% 1.3 MPH 293.4w/m2
07/03/2011 0.27" 0.22" 0.00" 0.22" 98.0° 65.5° 83.2° 26.9% 4.5 MPH 279.4w/m2
07/04/2011 0.10" 0.08" 0.00" 0.08" 86.6° 73.5° 78.5° 37.2% 2.4 MPH 74.8w/m2
07/05/2011 0.17" 0.14" 0.00" 0.14" 87.6° 66.7° 76.5° 49.0% 2.0 MPH 215.5w/m2
07/06/2011 0.20" 0.17" 0.00" 0.17" 88.1° 61.0° 74.8° 52.9% 1.7 MPH 272.9w/m2
07/07/2011 0.12" 0.10" 0.00" 0.10" 84.5° 65.1° 73.4° 51.3% 1.2 MPH 136.6w/m2
07/08/2011 0.14" 0.11" 0.00" 0.11" 83.5° 64.9° 72.7° 61.0% 1.6 MPH 172.2w/m2
07/09/2011 0.20" 0.16" 0.00" 0.16" 89.5° 61.6° 73.6° 48.5% 3.0 MPH 247.4w/m2
07/10/2011 0.16" 0.13" 0.11" 0.04" 87.5° 58.3° 70.6° 59.5% 2.6 MPH 185.8w/m2
07/11/2011 0.23" 0.19" 0.00" 0.19" 88.8° 60.9° 73.2° 54.6% 3.3 MPH 266.6w/m2
07/12/2011 0.18" 0.15" 0.02" 0.14" 87.5° 65.1° 75.3° 49.7% 4.1 MPH 205.5w/m2
07/13/2011 0.23" 0.19" 0.00" 0.19" 87.6° 67.9° 76.0° 43.9% 4.7 MPH 259.7w/m2
07/14/2011 0.23" 0.20" 0.00" 0.20" 85.3° 63.7° 74.8° 37.5% 3.8 MPH 296.8w/m2
07/15/2011 0.23" 0.20" 0.00" 0.20" 86.9° 62.9° 75.1° 28.5% 3.1 MPH 298.8w/m2
07/16/2011 0.24" 0.20" 0.00" 0.20" 90.7° 55.1° 74.2° 33.4% 2.6 MPH 302.5w/m2
07/17/2011 0.22" 0.19" 0.00" 0.19" 93.3° 59.0° 76.8° 35.1% 2.6 MPH 258.7w/m2
07/18/2011 0.19" 0.17" 0.00" 0.17" 90.2° 74.5° 80.9° 41.2% 4.3 MPH 180.0w/m2
07/19/2011 0.19" 0.17" 0.00" 0.17" 90.9° 73.5° 79.8° 41.7% 4.8 MPH 178.5w/m2
07/20/2011 0.20" 0.18" 0.00" 0.18" 86.9° 57.6° 73.9° 40.6% 1.2 MPH 291.4w/m2
07/21/2011 0.21" 0.18" 0.00" 0.18" 92.0° 56.4° 74.5° 42.1% 1.1 MPH 292.4w/m2
07/22/2011 0.25" 0.22" 0.00" 0.22" 94.2° 63.0° 78.2° 26.1% 3.8 MPH 299.5w/m2
07/23/2011 0.20" 0.18" 0.00" 0.18" 88.9° 57.1° 74.3° 43.6% 1.0 MPH 288.7w/m2
07/24/2011 0.21" 0.18" 0.00" 0.18" 97.3° 57.4° 78.0° 40.3% 1.1 MPH 292.6w/m2
07/25/2011 0.13" 0.12" 0.02" 0.10" 92.2° 65.4° 76.9° 38.7% 2.1 MPH 142.8w/m2
07/26/2011 0.18" 0.16" 0.07" 0.10" 86.9° 68.3° 75.1° 52.2% 5.3 MPH 175.7w/m2
07/27/2011 0.20" 0.18" 0.05" 0.14" 88.5° 62.9° 74.0° 51.1% 4.0 MPH 219.8w/m2
07/28/2011 0.21" 0.19" 0.00" 0.19" 90.7° 60.7° 76.4° 44.6% 1.4 MPH 283.3w/m2
07/29/2011 0.19" 0.17" 0.05" 0.13" 96.2° 57.9° 77.0° 45.2% 0.9 MPH 258.4w/m2
07/30/2011 0.18" 0.16" 0.00" 0.16" 90.2° 65.9° 77.6° 42.5% 2.1 MPH 220.1w/m2
07/31/2011 0.14" 0.13" 0.10" 0.05" 90.4° 66.7° 75.5° 58.8% 2.9 MPH 158.1w/m2
Totals: 6.02" 5.13" 0.42" 4.79" 98.0° 55.1° 75.7° 44.3% 2.6 MPH 236.9w/m2